NOZ173 ENZV-ENBR
Flight info
| Callsign | NOZ173 |
|---|---|
| Flight time | 0h 18m |
| Altitude | 16000 |
| Route | ALUVA |
| Aircraft | B738/M-SDE2E3FGHIRWXY/LB1 |
Departure
| Time | 2026-04-15 12:13 |
|---|---|
| Airport | Stavanger Airport, Sola (ENZV) |
Arrival
| Time | 2026-04-15 12:32 |
|---|---|
| Airport | Bergen Airport, Flesland (ENBR) |
| Time | Latitude | Longitude | Altitude | Speed | Heading |
|---|---|---|---|---|---|
| 2026-04-15 11:58 | 58.88127 | 5.63026 | 24 ft | 0 kts | 315° |
| 2026-04-15 12:08 | 58.88118 | 5.63044 | 24 ft | 3 kts | 315° |
| 2026-04-15 12:08 | 58.88105 | 5.63069 | 29 ft | 3 kts | 315° |
| 2026-04-15 12:08 | 58.88093 | 5.63090 | 29 ft | 0 kts | 315° |
| 2026-04-15 12:10 | 58.88095 | 5.63081 | 28 ft | 2 kts | 285° |
| 2026-04-15 12:10 | 58.88073 | 5.63022 | 28 ft | 8 kts | 222° |
| 2026-04-15 12:10 | 58.88026 | 5.62895 | 24 ft | 18 kts | 254° |
| 2026-04-15 12:10 | 58.88017 | 5.62642 | 27 ft | 17 kts | 257° |
| 2026-04-15 12:11 | 58.87926 | 5.62503 | 28 ft | 17 kts | 211° |
| 2026-04-15 12:11 | 58.87910 | 5.62245 | 25 ft | 25 kts | 287° |
| 2026-04-15 12:11 | 58.87964 | 5.61928 | 23 ft | 24 kts | 285° |
| 2026-04-15 12:11 | 58.88016 | 5.61556 | 23 ft | 33 kts | 285° |
| 2026-04-15 12:12 | 58.88079 | 5.61127 | 20 ft | 34 kts | 286° |
| 2026-04-15 12:12 | 58.88142 | 5.60799 | 18 ft | 8 kts | 302° |
| 2026-04-15 12:12 | 58.88140 | 5.60766 | 17 ft | 2 kts | 156° |
| 2026-04-15 12:12 | 58.88132 | 5.60806 | 19 ft | 4 kts | 109° |
| 2026-04-15 12:13 | 58.88073 | 5.61179 | 23 ft | 63 kts | 107° |
| 2026-04-15 12:13 | 58.87888 | 5.62398 | 27 ft | 123 kts | 107° |
| 2026-04-15 12:13 | 58.87608 | 5.64217 | 313 ft | 152 kts | 107° |
| 2026-04-15 12:13 | 58.87578 | 5.66326 | 948 ft | 173 kts | 77° |
| 2026-04-15 12:14 | 58.88405 | 5.68243 | 1601 ft | 198 kts | 39° |
| 2026-04-15 12:14 | 58.89762 | 5.69098 | 2428 ft | 216 kts | 15° |
| 2026-04-15 12:14 | 58.91334 | 5.69189 | 2857 ft | 241 kts | 0° |
| 2026-04-15 12:14 | 58.93060 | 5.68589 | 3263 ft | 263 kts | 351° |
| 2026-04-15 12:15 | 58.94924 | 5.67712 | 3745 ft | 283 kts | 348° |
| 2026-04-15 12:15 | 58.96843 | 5.66784 | 4644 ft | 286 kts | 347° |
| 2026-04-15 12:15 | 58.98782 | 5.65868 | 5622 ft | 285 kts | 346° |
| 2026-04-15 12:15 | 59.00732 | 5.64977 | 6524 ft | 287 kts | 347° |
| 2026-04-15 12:16 | 59.02682 | 5.64113 | 7391 ft | 291 kts | 346° |
| 2026-04-15 12:16 | 59.04661 | 5.63254 | 8287 ft | 291 kts | 346° |
| 2026-04-15 12:16 | 59.06643 | 5.62410 | 9227 ft | 290 kts | 346° |
| 2026-04-15 12:16 | 59.08601 | 5.61590 | 10210 ft | 287 kts | 345° |
| 2026-04-15 12:17 | 59.10587 | 5.60761 | 10789 ft | 300 kts | 346° |
| 2026-04-15 12:17 | 59.12686 | 5.59883 | 10965 ft | 325 kts | 346° |
| 2026-04-15 12:17 | 59.15009 | 5.58913 | 11150 ft | 348 kts | 346° |
| 2026-04-15 12:17 | 59.17452 | 5.57900 | 11320 ft | 369 kts | 346° |
| 2026-04-15 12:18 | 59.20030 | 5.56837 | 11547 ft | 387 kts | 347° |
| 2026-04-15 12:18 | 59.22694 | 5.55742 | 12044 ft | 394 kts | 347° |
| 2026-04-15 12:18 | 59.25381 | 5.54639 | 12718 ft | 396 kts | 347° |
| 2026-04-15 12:18 | 59.28081 | 5.53530 | 13384 ft | 398 kts | 347° |
| 2026-04-15 12:19 | 59.30802 | 5.52407 | 13968 ft | 401 kts | 347° |
| 2026-04-15 12:19 | 59.33544 | 5.51272 | 14502 ft | 404 kts | 347° |
| 2026-04-15 12:19 | 59.36290 | 5.50133 | 15085 ft | 404 kts | 347° |
| 2026-04-15 12:19 | 59.39048 | 5.48987 | 15557 ft | 407 kts | 347° |
| 2026-04-15 12:20 | 59.41832 | 5.47828 | 16035 ft | 409 kts | 347° |
| 2026-04-15 12:20 | 59.44647 | 5.46653 | 16175 ft | 420 kts | 347° |
| 2026-04-15 12:20 | 59.47483 | 5.45466 | 16171 ft | 419 kts | 347° |
| 2026-04-15 12:20 | 59.50318 | 5.44280 | 16183 ft | 413 kts | 347° |
| 2026-04-15 12:21 | 59.53111 | 5.43110 | 16178 ft | 408 kts | 347° |
| 2026-04-15 12:21 | 59.55854 | 5.41955 | 16166 ft | 400 kts | 347° |
| 2026-04-15 12:21 | 59.58551 | 5.40820 | 16166 ft | 393 kts | 347° |
| 2026-04-15 12:21 | 59.61206 | 5.39701 | 16172 ft | 387 kts | 347° |
| 2026-04-15 12:22 | 59.63823 | 5.38598 | 16176 ft | 382 kts | 347° |
| 2026-04-15 12:22 | 59.66426 | 5.37498 | 16184 ft | 384 kts | 347° |
| 2026-04-15 12:22 | 59.69028 | 5.36396 | 16176 ft | 385 kts | 347° |
| 2026-04-15 12:22 | 59.71644 | 5.35287 | 15829 ft | 387 kts | 347° |
| 2026-04-15 12:23 | 59.74267 | 5.34173 | 15282 ft | 384 kts | 347° |
| 2026-04-15 12:23 | 59.76870 | 5.33065 | 14802 ft | 381 kts | 347° |
| 2026-04-15 12:23 | 59.79452 | 5.31964 | 14333 ft | 380 kts | 347° |
| 2026-04-15 12:23 | 59.82039 | 5.30854 | 13845 ft | 381 kts | 347° |
| 2026-04-15 12:24 | 59.84632 | 5.29740 | 13307 ft | 381 kts | 347° |
| 2026-04-15 12:24 | 59.87227 | 5.28628 | 12768 ft | 381 kts | 347° |
| 2026-04-15 12:24 | 59.89818 | 5.27520 | 12278 ft | 381 kts | 347° |
| 2026-04-15 12:24 | 59.92404 | 5.26411 | 11771 ft | 380 kts | 347° |
| 2026-04-15 12:25 | 59.94982 | 5.25305 | 11260 ft | 377 kts | 346° |
| 2026-04-15 12:25 | 59.97530 | 5.24208 | 10755 ft | 373 kts | 347° |
| 2026-04-15 12:25 | 60.00052 | 5.23123 | 10270 ft | 369 kts | 346° |
| 2026-04-15 12:25 | 60.02551 | 5.22044 | 9759 ft | 366 kts | 345° |
| 2026-04-15 12:26 | 60.05033 | 5.20964 | 9223 ft | 365 kts | 346° |
| 2026-04-15 12:26 | 60.07511 | 5.19886 | 8703 ft | 363 kts | 347° |
| 2026-04-15 12:26 | 60.09975 | 5.18812 | 8188 ft | 362 kts | 347° |
| 2026-04-15 12:26 | 60.12434 | 5.17742 | 7669 ft | 362 kts | 347° |
| 2026-04-15 12:27 | 60.14891 | 5.16674 | 7180 ft | 361 kts | 348° |
| 2026-04-15 12:27 | 60.17324 | 5.15615 | 6673 ft | 352 kts | 348° |
| 2026-04-15 12:27 | 60.19682 | 5.14585 | 6156 ft | 342 kts | 348° |
| 2026-04-15 12:27 | 60.21976 | 5.13581 | 5615 ft | 334 kts | 348° |
| 2026-04-15 12:28 | 60.24218 | 5.12598 | 5094 ft | 327 kts | 348° |
| 2026-04-15 12:28 | 60.26416 | 5.11634 | 4577 ft | 321 kts | 349° |
| 2026-04-15 12:28 | 60.28576 | 5.10684 | 4075 ft | 315 kts | 349° |
| 2026-04-15 12:28 | 60.30705 | 5.09748 | 3543 ft | 311 kts | 349° |
| 2026-04-15 12:29 | 60.32766 | 5.08841 | 3091 ft | 303 kts | 349° |
| 2026-04-15 12:29 | 60.34801 | 5.08063 | 2686 ft | 293 kts | 359° |
| 2026-04-15 12:29 | 60.36686 | 5.08908 | 2512 ft | 267 kts | 34° |
| 2026-04-15 12:29 | 60.37926 | 5.11440 | 1814 ft | 252 kts | 69° |
| 2026-04-15 12:30 | 60.38074 | 5.14715 | 1386 ft | 226 kts | 112° |
| 2026-04-15 12:30 | 60.37175 | 5.17096 | 1183 ft | 206 kts | 139° |
| 2026-04-15 12:30 | 60.36088 | 5.18760 | 1093 ft | 186 kts | 149° |
| 2026-04-15 12:30 | 60.34984 | 5.19792 | 992 ft | 165 kts | 160° |
| 2026-04-15 12:31 | 60.33920 | 5.20365 | 760 ft | 152 kts | 169° |
| 2026-04-15 12:31 | 60.32927 | 5.20665 | 709 ft | 137 kts | 172° |
| 2026-04-15 12:31 | 60.31957 | 5.20969 | 528 ft | 143 kts | 171° |
| 2026-04-15 12:31 | 60.30967 | 5.21274 | 331 ft | 145 kts | 167° |
| 2026-04-15 12:32 | 60.29981 | 5.21604 | 199 ft | 135 kts | 168° |
| 2026-04-15 12:32 | 60.29198 | 5.21869 | 176 ft | 85 kts | 171° |
| 2026-04-15 12:32 | 60.28932 | 5.21985 | 173 ft | 21 kts | 137° |
| 2026-04-15 12:32 | 60.28921 | 5.22216 | 173 ft | 16 kts | 82° |